Greater Binghamton/Edwin A Link field
KBGM : now visible

Airfield :











YOU CAN JOIN US ON...

 
LOGIN :

Register | Disclaimer

   EN    FR    IT 

 









Legend :    VFR   Marginal VFR   IFR   Intensive IFR   Very Intensive IFR
Visi :
Ceiling :
>= 8 km
>= 3000ft
5 to 8 km
1000 to 3000 ft
1500m to 5 km
500 to 1000 ft
800 to 1500m
200 to 500 ft
< 800m
< 200 ft
Symbols :   Thunderstorms  Fog  Heavy snow  Heavy precipitations  Wind > 20 kt







- Airport Elevation : 1636 ft
- IATA code : BGM


KBGM - Greater Binghamton/Edwin A Link field

CURRENT METAR :
  • 221153Z 36009KT 10SM OVC009 07/05 A3019 RMK AO2 SLP228 T00720050 10078 20061 53014

EXPIRED METARs :
  • 221053Z 36010KT 10SM OVC009 07/04 A3016 RMK AO2 SLP219 T00670044
  • 221007Z 01005KT 10SM BKN013 07/04 A3015 RMK AO2 T00670044
  • 220953Z 36006KT 10SM FEW013 06/04 A3015 RMK AO2 SLP213 T00610044
  • 220929Z AUTO 35007KT 10SM FEW011 BKN075 07/05 A3014 RMK AO2 T00720050

TAF KBGM
Valid from the 22 at 12:00 until the 23 at 12:00 UTC


221130Z 2212/2312 36009KT P6SM OVC009
FM221300 35007KT P6SM OVC012
TEMPO 2214/2216 SCT015
FM221600 35009KT P6SM SCT018
FM230900 22003KT 3SM BR SCT003
KZNY FIR / North America



MET'MAP, your aeronautical weather chart ! - Copyright ORBIFLY December 2007 - Disclaimer

ORBIFLY MET'MAP TEAM :

Programming & Development : Alexandra Zaïnal
Concept & Development : Baudouin d'Aumeries
Co-Development & Prog : Marc-Olivier Méhu
Technical & hardware support : Manuel Goepfert

Contact : metmap@orbifly.com




SOURCES & CREDITS :

   NOAA       Earth
Advisory